Time;durP1;ratioP1;P1;durP2;ratioP2;P2;SDS_P1;SDS_P2;PMS_P1;PMS_P2;Temp;Humidity;BMP_temperature;BMP_pressure;BME280_temperature;BME280_humidity;BME280_pressure;Samples;Min_cycle;Max_cycle;Signal;HPM_P1;HPM_P2
2022/12/01 00:01:26;;;;;;;5.47;2.78;;;12.80;99.90;;;;;;4969243;28;20252;-71
2022/12/01 00:03:54;;;;;;;5.22;3.00;;;12.80;99.90;;;;;;4973186;28;20039;-71
2022/12/01 00:06:21;;;;;;;5.38;3.88;;;12.80;99.90;;;;;;4968743;28;20039;-71
2022/12/01 00:11:37;;;;;;;3.85;2.08;;;12.80;99.90;;;;;;4973064;28;20177;-71
2022/12/01 00:14:05;;;;;;;5.45;2.33;;;12.80;99.90;;;;;;4975711;28;20169;-70
2022/12/01 00:16:33;;;;;;;6.88;2.63;;;12.80;99.90;;;;;;4979492;28;20056;-71
2022/12/01 00:19:01;;;;;;;4.13;2.90;;;12.80;99.90;;;;;;4957330;28;20050;-71
2022/12/01 00:21:28;;;;;;;5.03;3.10;;;12.80;99.90;;;;;;4953118;28;20031;-70
2022/12/01 00:23:57;;;;;;;4.45;2.78;;;12.80;99.90;;;;;;4980008;28;20047;-71
2022/12/01 00:26:26;;;;;;;4.22;2.75;;;12.80;99.90;;;;;;4966288;28;20339;-71
2022/12/01 00:28:58;;;;;;;3.83;2.50;;;12.80;99.90;;;;;;4982439;28;20131;-72
2022/12/01 00:31:26;;;;;;;4.70;2.83;;;12.80;99.90;;;;;;4976117;28;20088;-71
2022/12/01 00:33:54;;;;;;;4.32;2.92;;;12.80;99.90;;;;;;4979375;28;20049;-71
2022/12/01 00:36:22;;;;;;;5.10;3.60;;;12.80;99.90;;;;;;4976140;28;20042;-71
2022/12/01 00:38:55;;;;;;;5.80;4.22;;;12.80;99.90;;;;;;4987172;28;20504;-71
2022/12/01 00:41:24;;;;;;;8.52;3.92;;;12.70;99.90;;;;;;4962637;28;20118;-71
2022/12/01 00:43:51;;;;;;;5.82;3.67;;;12.70;99.90;;;;;;4979513;28;20045;-71
2022/12/01 00:46:19;;;;;;;5.30;3.13;;;12.70;99.90;;;;;;4964877;28;20194;-72
2022/12/01 00:48:48;;;;;;;5.35;3.53;;;12.70;99.90;;;;;;4982553;28;20106;-71
2022/12/01 00:51:15;;;;;;;6.03;3.55;;;12.70;99.90;;;;;;4976266;28;20047;-71
2022/12/01 00:53:43;;;;;;;7.18;3.90;;;12.70;99.90;;;;;;4976181;28;20065;-70
2022/12/01 00:56:10;;;;;;;5.13;3.47;;;12.70;99.90;;;;;;4977190;28;20088;-71
2022/12/01 00:58:38;;;;;;;6.63;4.28;;;12.70;99.90;;;;;;4978719;28;20059;-71
2022/12/01 01:01:05;;;;;;;5.43;3.85;;;12.70;99.90;;;;;;4974054;28;20043;-71
2022/12/01 01:03:33;;;;;;;6.95;3.00;;;12.70;99.90;;;;;;4962107;28;20129;-71
2022/12/01 01:06:09;;;;;;;4.32;3.33;;;12.70;99.90;;;;;;4973443;28;20043;-71
2022/12/01 01:08:38;;;;;;;7.00;3.42;;;12.60;99.90;;;;;;4981621;28;20082;-71
2022/12/01 01:11:06;;;;;;;4.43;3.10;;;12.60;99.90;;;;;;4978861;28;20051;-71
2022/12/01 01:13:34;;;;;;;4.88;3.17;;;12.70;99.90;;;;;;4948784;28;20055;-71
2022/12/01 01:16:22;;;;;;;4.68;2.95;;;12.60;99.90;;;;;;4955385;28;20117;-72
2022/12/01 01:18:50;;;;;;;6.10;3.72;;;12.60;99.90;;;;;;4972340;28;20057;-71
2022/12/01 01:21:20;;;;;;;4.70;2.83;;;12.60;99.90;;;;;;4978739;28;20067;-71
2022/12/01 01:23:48;;;;;;;4.70;2.95;;;12.60;99.90;;;;;;4968858;28;20073;-71
2022/12/01 01:26:19;;;;;;;5.15;2.83;;;12.60;99.90;;;;;;4942770;28;20054;-71
2022/12/01 01:28:48;;;;;;;4.13;2.63;;;12.60;99.90;;;;;;4987376;28;20039;-71
2022/12/01 01:31:19;;;;;;;4.90;2.40;;;12.60;99.90;;;;;;4969727;28;20457;-71
2022/12/01 01:33:47;;;;;;;5.60;2.60;;;12.60;99.90;;;;;;4965871;28;20081;-71
2022/12/01 01:36:15;;;;;;;7.53;2.97;;;12.60;99.90;;;;;;4967107;28;20043;-71
2022/12/01 01:38:43;;;;;;;4.55;2.65;;;12.50;99.90;;;;;;4969918;28;20038;-71
2022/12/01 01:41:11;;;;;;;6.00;2.60;;;12.60;99.90;;;;;;4971605;28;20065;-71
2022/12/01 01:43:47;;;;;;;5.18;3.08;;;12.50;99.90;;;;;;4969362;28;20047;-71
2022/12/01 01:46:45;;;;;;;3.92;2.22;;;12.50;99.90;;;;;;4967680;28;20043;-71
2022/12/01 01:49:13;;;;;;;3.83;2.33;;;12.50;99.90;;;;;;4960625;28;20128;-71
2022/12/01 01:51:48;;;;;;;3.88;1.80;;;12.50;99.90;;;;;;4973674;28;20066;-70
2022/12/01 01:54:24;;;;;;;3.38;1.85;;;12.50;99.90;;;;;;4990706;28;20514;-71
2022/12/01 01:56:52;;;;;;;3.63;1.73;;;12.50;99.90;;;;;;4956108;28;20175;-71
2022/12/01 01:59:28;;;;;;;3.65;2.00;;;12.50;99.90;;;;;;4973809;28;20043;-71
2022/12/01 02:02:04;;;;;;;5.13;2.85;;;12.50;99.90;;;;;;4977516;28;20050;-71
2022/12/01 02:04:35;;;;;;;2.60;1.73;;;12.50;99.90;;;;;;4998079;28;20443;-71
2022/12/01 02:07:03;;;;;;;3.08;1.50;;;12.50;99.90;;;;;;4942585;28;20169;-71
2022/12/01 02:09:31;;;;;;;3.17;1.27;;;12.50;99.90;;;;;;4956446;28;20054;-71
2022/12/01 02:12:14;;;;;;;2.85;1.50;;;12.60;99.90;;;;;;4976222;28;20054;-71
2022/12/01 02:15:32;;;;;;;3.30;1.90;;;12.50;99.90;;;;;;4976593;28;20147;-71
2022/12/01 02:18:21;;;;;;;2.10;1.10;;;12.50;99.90;;;;;;4939324;28;20061;-71
2022/12/01 02:21:12;;;;;;;1.77;1.10;;;12.50;99.90;;;;;;4973374;28;20046;-71
2022/12/01 02:24:21;;;;;;;2.15;0.88;;;12.50;99.90;;;;;;4968991;28;20050;-71
2022/12/01 02:26:58;;;;;;;2.65;1.15;;;12.50;99.90;;;;;;4963773;28;20062;-71
2022/12/01 02:29:28;;;;;;;;;;;12.50;99.90;;;;;;4957361;28;20638;-71
2022/12/01 02:32:11;;;;;;;1.20;0.82;;;12.50;99.90;;;;;;4954419;28;20406;-71
2022/12/01 02:34:58;;;;;;;2.25;1.10;;;12.50;99.90;;;;;;4964794;28;20843;-71
2022/12/01 02:37:28;;;;;;;;;;;12.50;99.90;;;;;;4977789;28;20046;-71
2022/12/01 02:40:04;;;;;;;1.67;1.15;;;12.50;99.90;;;;;;4963441;28;19933;-71
2022/12/01 02:42:52;;;;;;;6.53;1.42;;;12.50;99.90;;;;;;4963254;28;20055;-71
2022/12/01 02:45:25;;;;;;;2.72;1.48;;;12.40;99.90;;;;;;4962729;28;20123;-72
2022/12/01 02:47:55;;;;;;;1.90;1.17;;;12.50;99.90;;;;;;4954649;28;20144;-71
2022/12/01 02:50:25;;;;;;;1.95;1.23;;;12.40;99.90;;;;;;4969305;28;20046;-71
2022/12/01 02:52:54;;;;;;;2.80;1.13;;;12.50;99.90;;;;;;4962797;28;20047;-71
2022/12/01 02:55:21;;;;;;;4.32;1.55;;;12.50;99.90;;;;;;4978752;28;20578;-71
2022/12/01 02:57:49;;;;;;;2.15;1.33;;;12.50;99.90;;;;;;4975917;28;20058;-71
2022/12/01 03:00:17;;;;;;;2.15;1.40;;;12.50;99.90;;;;;;4968947;28;20409;-71
2022/12/01 03:02:50;;;;;;;3.83;1.52;;;12.40;99.90;;;;;;4952148;28;20084;-71
2022/12/01 03:05:26;;;;;;;2.08;1.25;;;12.40;99.90;;;;;;4982245;28;20129;-72
2022/12/01 03:08:00;;;;;;;2.83;1.40;;;12.40;99.90;;;;;;4965682;28;20426;-72
2022/12/01 03:10:45;;;;;;;2.28;1.23;;;12.40;99.90;;;;;;4989766;28;20392;-72
2022/12/01 03:13:16;;;;;;;3.72;1.30;;;12.40;99.90;;;;;;4979163;28;20926;-72
2022/12/01 03:15:47;;;;;;;2.50;1.42;;;12.40;99.90;;;;;;4969110;28;20043;-72
2022/12/01 03:18:47;;;;;;;1.85;1.10;;;12.40;99.90;;;;;;4968713;28;20047;-72
2022/12/01 03:21:54;;;;;;;2.63;1.30;;;12.40;99.90;;;;;;4969943;28;20550;-72
2022/12/01 03:24:25;;;;;;;1.75;1.30;;;12.40;99.90;;;;;;4968783;28;20063;-72
2022/12/01 03:26:56;;;;;;;2.25;1.17;;;12.40;99.90;;;;;;4966779;28;20448;-72
2022/12/01 03:29:29;;;;;;;2.38;1.33;;;12.40;99.90;;;;;;4954814;28;20477;-73
2022/12/01 03:32:05;;;;;;;2.38;0.95;;;12.40;99.90;;;;;;4954335;28;20537;-72
2022/12/01 03:34:50;;;;;;;2.30;1.13;;;12.30;99.90;;;;;;4966168;28;20050;-73
2022/12/01 03:37:30;;;;;;;3.25;1.98;;;12.30;99.90;;;;;;4968577;28;20047;-72
2022/12/01 03:39:59;;;;;;;2.38;1.33;;;12.40;99.90;;;;;;4967950;28;20074;-72
2022/12/01 03:42:35;;;;;;;3.47;1.33;;;12.30;99.90;;;;;;4969284;28;20070;-73
2022/12/01 03:45:14;;;;;;;1.77;1.13;;;12.30;99.90;;;;;;4965939;28;20412;-73
2022/12/01 03:47:44;;;;;;;3.75;1.38;;;12.30;99.90;;;;;;4968224;28;20051;-72
2022/12/01 03:50:13;;;;;;;2.22;1.30;;;12.30;99.90;;;;;;4955353;28;20057;-73
2022/12/01 03:52:58;;;;;;;2.25;1.10;;;12.30;99.90;;;;;;4970890;28;20220;-72
2022/12/01 03:55:29;;;;;;;0.80;0.80;;;12.30;99.90;;;;;;4972121;28;20039;-72
2022/12/01 03:58:08;;;;;;;1.98;1.23;;;12.30;99.90;;;;;;4952914;28;20153;-73
2022/12/01 04:00:36;;;;;;;1.90;1.13;;;12.30;99.90;;;;;;4971642;28;20086;-72
2022/12/01 04:03:04;;;;;;;3.47;1.40;;;12.30;99.90;;;;;;4952737;28;20331;-72
2022/12/01 04:05:33;;;;;;;2.35;1.55;;;12.30;99.90;;;;;;4971579;28;20046;-72
2022/12/01 04:08:01;;;;;;;0.82;0.80;;;12.30;99.90;;;;;;4985922;28;20043;-72
2022/12/01 04:10:28;;;;;;;1.77;0.95;;;12.40;99.90;;;;;;4971395;28;20051;-72
2022/12/01 04:12:58;;;;;;;2.58;1.13;;;12.40;99.90;;;;;;4987108;28;20359;-72
2022/12/01 04:15:26;;;;;;;1.70;1.00;;;12.40;99.90;;;;;;4972064;28;20504;-72
2022/12/01 04:17:54;;;;;;;2.80;1.40;;;12.40;99.90;;;;;;4972857;28;20045;-72
2022/12/01 04:20:21;;;;;;;2.00;1.10;;;12.40;99.90;;;;;;4970001;28;20053;-72
2022/12/01 04:22:49;;;;;;;2.45;1.42;;;12.40;99.90;;;;;;4969846;28;20061;-72
2022/12/01 04:25:16;;;;;;;4.63;1.25;;;12.40;99.90;;;;;;4969656;28;20042;-72
2022/12/01 04:27:44;;;;;;;3.75;1.27;;;12.40;99.90;;;;;;4956424;28;20460;-72
2022/12/01 04:30:12;;;;;;;5.10;1.52;;;12.40;99.90;;;;;;4969862;28;20489;-72
2022/12/01 04:32:41;;;;;;;2.20;1.45;;;12.40;99.90;;;;;;4970814;28;20458;-72
2022/12/01 04:35:10;;;;;;;2.00;1.30;;;12.40;99.90;;;;;;4972276;28;20215;-72
2022/12/01 04:37:38;;;;;;;1.83;1.20;;;12.40;99.90;;;;;;4971284;28;20039;-72
2022/12/01 04:40:07;;;;;;;1.85;1.38;;;12.40;99.90;;;;;;4987717;28;20149;-72
2022/12/01 04:42:34;;;;;;;2.08;1.40;;;12.40;99.90;;;;;;4972750;28;20051;-73
2022/12/01 04:45:02;;;;;;;8.13;1.95;;;12.50;99.90;;;;;;4971019;28;20512;-72
2022/12/01 04:47:30;;;;;;;1.80;1.13;;;12.50;99.90;;;;;;4970999;28;20061;-72
2022/12/01 04:49:57;;;;;;;2.33;1.50;;;12.50;99.90;;;;;;4972589;28;20058;-72
2022/12/01 04:52:25;;;;;;;8.02;1.77;;;12.50;99.90;;;;;;4971778;28;20122;-72
2022/12/01 04:54:54;;;;;;;5.30;1.60;;;12.50;99.90;;;;;;4972116;28;20050;-73
2022/12/01 04:57:22;;;;;;;3.25;2.13;;;12.50;99.90;;;;;;4970936;28;20066;-72
2022/12/01 04:59:49;;;;;;;3.40;1.75;;;12.50;99.90;;;;;;4954000;28;20110;-72
2022/12/01 05:02:17;;;;;;;5.68;2.42;;;12.50;99.90;;;;;;4972184;28;20106;-72
2022/12/01 05:04:46;;;;;;;7.28;2.50;;;12.60;99.90;;;;;;4970676;28;20054;-72
2022/12/01 05:07:14;;;;;;;4.15;2.42;;;12.60;99.90;;;;;;4971789;28;20049;-72
2022/12/01 05:09:42;;;;;;;3.25;2.42;;;12.60;99.90;;;;;;4972111;28;20501;-72
2022/12/01 05:12:09;;;;;;;7.18;3.08;;;12.60;99.90;;;;;;4970768;28;20382;-72
2022/12/01 05:14:36;;;;;;;4.38;2.10;;;12.60;99.90;;;;;;4971839;28;20047;-72
2022/12/01 05:17:04;;;;;;;7.70;2.35;;;12.70;99.90;;;;;;4971929;28;20138;-72
2022/12/01 05:22:17;;;;;;;3.75;1.88;;;12.70;99.90;;;;;;4970114;28;20146;-73
2022/12/01 05:24:53;;;;;;;5.05;3.33;;;12.70;99.90;;;;;;4971253;28;20046;-72
2022/12/01 05:27:20;;;;;;;6.50;3.33;;;12.70;99.90;;;;;;4971499;28;20086;-72
2022/12/01 05:29:48;;;;;;;7.75;3.08;;;12.70;99.90;;;;;;4970211;28;20074;-72
2022/12/01 05:32:15;;;;;;;7.20;2.40;;;12.70;99.90;;;;;;4970032;28;20122;-71
2022/12/01 05:34:43;;;;;;;5.65;2.67;;;12.70;99.90;;;;;;4971272;28;20051;-72
2022/12/01 05:37:10;;;;;;;4.35;2.58;;;12.70;99.90;;;;;;4971224;28;20045;-72
2022/12/01 05:39:39;;;;;;;5.47;3.28;;;12.70;99.90;;;;;;4986373;28;20057;-72
2022/12/01 05:42:06;;;;;;;6.35;2.17;;;12.70;99.90;;;;;;4970446;28;20130;-72
2022/12/01 05:44:34;;;;;;;5.03;2.67;;;12.70;99.90;;;;;;4954258;28;20055;-73
2022/12/01 05:47:01;;;;;;;4.63;2.63;;;12.70;99.90;;;;;;4953257;28;20051;-72
2022/12/01 05:49:29;;;;;;;11.05;2.95;;;12.60;99.90;;;;;;4969741;28;20054;-72
2022/12/01 05:51:56;;;;;;;5.30;2.53;;;12.60;99.90;;;;;;4970504;28;20078;-72
2022/12/01 05:54:24;;;;;;;6.07;3.72;;;12.60;99.90;;;;;;4969959;28;20047;-72
2022/12/01 05:56:51;;;;;;;4.53;2.47;;;12.60;99.90;;;;;;4971264;28;20050;-72
2022/12/01 05:59:19;;;;;;;4.05;2.30;;;12.60;99.90;;;;;;4970488;28;20074;-72
2022/12/01 06:01:47;;;;;;;4.38;2.97;;;12.60;99.90;;;;;;4971399;28;20071;-72
2022/12/01 06:04:14;;;;;;;4.93;2.45;;;12.60;99.90;;;;;;4954403;28;20080;-72
2022/12/01 06:06:42;;;;;;;5.63;3.25;;;12.60;99.90;;;;;;4953830;28;20465;-72
2022/12/01 06:09:10;;;;;;;6.07;3.20;;;12.60;99.90;;;;;;4971013;28;20520;-72
2022/12/01 06:11:37;;;;;;;6.28;2.67;;;12.60;99.90;;;;;;4971108;28;20053;-72
2022/12/01 06:14:05;;;;;;;4.63;2.47;;;12.50;99.90;;;;;;4970527;28;20047;-72
2022/12/01 06:16:32;;;;;;;5.97;2.50;;;12.50;99.90;;;;;;4969616;28;20057;-72
2022/12/01 06:19:00;;;;;;;6.18;2.97;;;12.40;99.90;;;;;;4971283;28;20105;-72
2022/12/01 06:21:27;;;;;;;4.20;1.88;;;12.40;99.90;;;;;;4969897;28;20053;-72
2022/12/01 06:23:55;;;;;;;4.53;2.50;;;12.40;99.90;;;;;;4970147;28;20047;-72
2022/12/01 06:26:22;;;;;;;4.35;2.75;;;12.50;99.90;;;;;;4970795;28;20051;-72
2022/12/01 06:28:49;;;;;;;5.63;2.28;;;12.50;99.90;;;;;;4969913;28;20073;-72
2022/12/01 06:31:17;;;;;;;3.25;2.20;;;12.50;99.90;;;;;;4970410;28;20435;-72
2022/12/01 06:33:44;;;;;;;6.65;2.78;;;12.50;99.90;;;;;;4969502;28;20105;-72
2022/12/01 06:36:13;;;;;;;5.63;2.50;;;12.50;99.90;;;;;;4969277;28;20097;-72
2022/12/01 06:38:41;;;;;;;3.25;1.92;;;12.50;99.90;;;;;;4969084;28;20061;-72
2022/12/01 06:41:08;;;;;;;9.98;3.05;;;12.50;99.90;;;;;;4953110;28;20390;-72
2022/12/01 06:43:36;;;;;;;3.85;2.67;;;12.50;99.90;;;;;;4940693;29;20070;-72
2022/12/01 06:46:04;;;;;;;4.47;2.50;;;12.50;99.90;;;;;;4950922;29;20455;-72
2022/12/01 06:48:33;;;;;;;5.20;2.70;;;12.50;99.90;;;;;;4951052;28;20105;-73
2022/12/01 06:51:01;;;;;;;4.30;2.67;;;12.60;99.90;;;;;;4966846;28;20127;-72
2022/12/01 06:53:29;;;;;;;4.70;2.92;;;12.60;99.90;;;;;;4970027;28;20481;-72
2022/12/01 06:56:01;;;;;;;6.28;2.97;;;12.60;99.90;;;;;;4970461;28;20043;-72
2022/12/01 06:58:29;;;;;;;6.43;2.47;;;12.60;99.90;;;;;;4968965;28;20513;-72
2022/12/01 07:00:57;;;;;;;7.88;2.58;;;12.60;99.90;;;;;;4952727;28;20053;-72
2022/12/01 07:03:25;;;;;;;7.22;3.35;;;12.60;99.90;;;;;;4968854;28;20070;-72
2022/12/01 07:05:59;;;;;;;6.05;3.08;;;12.70;99.90;;;;;;4970121;28;20132;-72
2022/12/01 07:08:28;;;;;;;4.28;2.90;;;12.70;99.90;;;;;;4969077;28;20524;-72
2022/12/01 07:11:02;;;;;;;8.07;2.60;;;12.70;99.90;;;;;;4968497;28;20054;-73
2022/12/01 07:13:30;;;;;;;5.47;2.63;;;12.70;99.90;;;;;;4968560;28;20046;-72
2022/12/01 07:16:03;;;;;;;5.10;3.30;;;12.70;99.90;;;;;;4952800;28;20063;-72
2022/12/01 07:18:32;;;;;;;7.13;2.63;;;12.80;99.90;;;;;;4968555;28;20133;-72
2022/12/01 07:21:05;;;;;;;7.60;3.38;;;12.80;99.90;;;;;;4968068;28;20058;-72
2022/12/01 07:23:34;;;;;;;5.00;2.70;;;12.80;99.90;;;;;;4984196;28;20481;-73
2022/12/01 07:26:20;;;;;;;14.82;3.60;;;12.90;99.90;;;;;;4969590;28;20070;-72
2022/12/01 07:28:48;;;;;;;4.30;3.38;;;12.90;99.90;;;;;;4969840;28;20081;-72
2022/12/01 07:31:17;;;;;;;10.25;5.20;;;13.00;99.90;;;;;;4968213;28;20070;-72
2022/12/01 07:33:45;;;;;;;13.50;8.40;;;13.00;99.90;;;;;;4969446;28;20043;-72
2022/12/01 07:36:13;;;;;;;12.73;7.07;;;13.00;99.90;;;;;;4969346;28;20461;-72
2022/12/01 07:38:41;;;;;;;11.38;5.70;;;13.00;99.90;;;;;;4969423;28;20125;-72
2022/12/01 07:41:14;;;;;;;14.95;6.50;;;13.10;99.90;;;;;;4968201;28;20386;-72
2022/12/01 07:43:42;;;;;;;10.18;6.85;;;13.20;99.90;;;;;;4968344;28;20057;-72
2022/12/01 07:46:20;;;;;;;12.15;5.65;;;13.20;99.90;;;;;;4952445;28;20043;-72
2022/12/01 07:48:50;;;;;;;10.23;4.10;;;13.30;99.90;;;;;;4970022;28;20070;-73
2022/12/01 07:51:18;;;;;;;5.85;2.80;;;13.30;99.90;;;;;;4969850;28;20094;-72
2022/12/01 07:53:48;;;;;;;5.10;2.90;;;13.40;99.90;;;;;;4969657;28;20090;-72
2022/12/01 07:56:16;;;;;;;4.47;3.20;;;13.40;99.90;;;;;;4968241;28;20106;-72
2022/12/01 07:58:44;;;;;;;6.13;3.20;;;13.50;99.90;;;;;;4984324;28;20059;-72
2022/12/01 08:01:14;;;;;;;6.45;3.67;;;13.50;99.90;;;;;;4968303;28;20405;-72
2022/12/01 08:03:42;;;;;;;5.75;3.88;;;13.60;99.90;;;;;;4967627;28;20061;-72
2022/12/01 08:06:10;;;;;;;6.00;3.65;;;13.70;99.90;;;;;;4969250;28;20096;-72
2022/12/01 08:08:40;;;;;;;7.35;4.30;;;13.70;99.90;;;;;;4969479;28;20039;-72
2022/12/01 08:11:16;;;;;;;6.82;2.85;;;13.70;99.90;;;;;;4969507;28;20471;-72
2022/12/01 08:13:44;;;;;;;9.93;4.28;;;13.80;99.90;;;;;;4967649;28;20049;-73
2022/12/01 08:16:14;;;;;;;7.30;4.05;;;13.90;99.90;;;;;;4983786;28;20050;-72
2022/12/01 08:18:43;;;;;;;5.63;3.65;;;14.00;99.90;;;;;;4975329;28;20473;-71
2022/12/01 08:21:13;;;;;;;7.38;3.97;;;14.00;99.90;;;;;;4984315;28;20314;-72
2022/12/01 08:23:41;;;;;;;6.50;3.47;;;14.10;99.90;;;;;;4978937;28;20070;-71
2022/12/01 08:26:16;;;;;;;5.55;3.42;;;14.30;99.90;;;;;;4978892;28;20130;-72
2022/12/01 08:28:45;;;;;;;14.93;3.97;;;14.40;99.90;;;;;;4958976;28;20049;-73
2022/12/01 08:31:30;;;;;;;4.00;2.60;;;14.50;99.90;;;;;;4972335;28;20042;-72
2022/12/01 08:33:58;;;;;;;4.65;2.05;;;14.60;99.90;;;;;;4962814;28;20375;-73
2022/12/01 08:36:26;;;;;;;3.30;2.20;;;14.80;99.90;;;;;;4966604;28;20070;-72
2022/12/01 08:38:54;;;;;;;5.75;2.38;;;15.00;99.90;;;;;;4964154;28;20216;-73
2022/12/01 08:41:23;;;;;;;4.97;2.70;;;15.10;99.90;;;;;;4963832;28;20179;-72
2022/12/01 08:43:51;;;;;;;4.93;2.55;;;15.20;99.90;;;;;;4978144;28;20055;-73
2022/12/01 08:46:30;;;;;;;3.97;2.15;;;15.20;99.90;;;;;;4965641;28;20173;-73
2022/12/01 08:48:59;;;;;;;4.45;2.50;;;15.30;99.90;;;;;;4983077;28;20046;-73
2022/12/01 08:51:28;;;;;;;4.63;3.10;;;15.40;99.90;;;;;;4990018;28;20576;-73
2022/12/01 08:53:57;;;;;;;6.43;2.70;;;15.40;99.90;;;;;;4981186;28;20074;-73
2022/12/01 08:56:37;;;;;;;4.90;2.90;;;15.40;99.90;;;;;;4985531;28;20046;-74
2022/12/01 08:59:05;;;;;;;7.82;3.72;;;15.50;99.90;;;;;;4982265;28;20449;-73
2022/12/01 09:01:34;;;;;;;6.97;4.03;;;15.60;99.90;;;;;;4989574;28;20132;-73
2022/12/01 09:04:06;;;;;;;5.22;2.70;;;15.70;99.90;;;;;;4980447;28;20134;-73
2022/12/01 09:06:39;;;;;;;5.93;2.58;;;15.60;99.90;;;;;;4988286;28;20046;-73
2022/12/01 09:09:09;;;;;;;18.85;5.70;;;15.50;99.90;;;;;;4983299;28;20044;-73
2022/12/01 09:11:37;;;;;;;11.65;5.80;;;15.50;99.90;;;;;;5004400;28;20058;-73
2022/12/01 09:14:05;;;;;;;8.95;4.70;;;15.50;99.90;;;;;;4971398;28;20497;-73
2022/12/01 09:16:32;;;;;;;9.77;4.65;;;15.50;99.90;;;;;;4983910;28;20070;-73
2022/12/01 09:19:02;;;;;;;8.02;5.40;;;15.40;99.90;;;;;;4984638;28;20065;-73
2022/12/01 09:21:31;;;;;;;12.07;4.20;;;15.40;99.90;;;;;;4988952;28;20039;-73
2022/12/01 09:24:00;;;;;;;6.70;2.75;;;15.40;99.90;;;;;;4976674;28;20043;-72
2022/12/01 09:26:28;;;;;;;6.30;3.40;;;15.60;99.90;;;;;;4966499;28;20061;-73
2022/12/01 09:28:58;;;;;;;5.25;3.33;;;15.70;99.90;;;;;;4956599;28;20179;-73
2022/12/01 09:31:25;;;;;;;4.90;3.10;;;16.00;99.90;;;;;;4979661;28;20031;-73
2022/12/01 09:33:58;;;;;;;5.03;3.40;;;16.10;99.90;;;;;;4972306;28;20043;-72
2022/12/01 09:36:27;;;;;;;8.50;4.63;;;16.20;99.90;;;;;;4970463;28;20097;-72
2022/12/01 09:38:55;;;;;;;8.50;4.28;;;16.30;99.90;;;;;;4970442;28;20569;-72
2022/12/01 09:41:26;;;;;;;8.55;4.25;;;16.20;99.90;;;;;;4980337;28;20403;-73
2022/12/01 09:44:12;;;;;;;10.07;4.68;;;16.10;99.90;;;;;;4971021;28;20133;-73
2022/12/01 09:46:56;;;;;;;10.80;5.27;;;15.80;99.90;;;;;;4952315;29;20058;-72
2022/12/01 09:49:44;;;;;;;8.32;4.85;;;15.60;99.90;;;;;;4951842;29;20054;-72
2022/12/01 09:52:14;;;;;;;9.18;3.92;;;15.60;99.90;;;;;;4942464;28;20550;-73
2022/12/01 09:54:54;;;;;;;10.55;4.18;;;15.50;99.90;;;;;;4961507;28;20065;-75
2022/12/01 09:57:34;;;;;;;9.23;3.85;;;15.60;99.90;;;;;;4972003;28;20238;-74
2022/12/01 10:00:16;;;;;;;6.60;3.88;;;15.50;99.90;;;;;;4988077;28;20132;-74
2022/12/01 10:03:12;;;;;;;4.60;4.03;;;15.50;99.90;;;;;;4989370;28;20042;-74
2022/12/01 10:05:50;;;;;;;6.68;3.33;;;15.40;99.90;;;;;;4976318;28;20516;-74
2022/12/01 10:08:46;;;;;;;8.30;3.75;;;15.40;99.90;;;;;;4965750;28;20050;-74
2022/12/01 10:11:34;;;;;;;4.88;3.70;;;15.40;99.90;;;;;;4986311;28;20050;-74
2022/12/01 10:14:07;;;;;;;8.48;3.55;;;15.30;99.90;;;;;;4989264;28;20050;-74
2022/12/01 10:17:13;;;;;;;5.50;3.72;;;15.30;99.90;;;;;;4950768;29;20114;-74
2022/12/01 10:20:09;;;;;;;7.10;3.47;;;15.30;99.90;;;;;;4917188;29;20339;-74
2022/12/01 10:23:02;;;;;;;6.47;4.13;;;15.30;99.90;;;;;;4954608;28;20055;-74
2022/12/01 10:25:54;;;;;;;10.63;3.88;;;15.30;99.90;;;;;;4959368;28;20042;-74
2022/12/01 10:28:44;;;;;;;7.15;4.00;;;15.20;99.90;;;;;;4961587;28;20413;-74
2022/12/01 10:31:50;;;;;;;6.85;3.90;;;15.20;99.90;;;;;;4980661;28;20046;-74
2022/12/01 10:34:32;;;;;;;7.22;3.78;;;15.10;99.90;;;;;;4983683;28;20511;-75
2022/12/01 10:37:00;;;;;;;10.55;4.65;;;15.10;99.90;;;;;;4987606;28;20105;-77
2022/12/01 10:39:37;;;;;;;12.30;6.18;;;15.00;99.90;;;;;;4989129;28;20508;-74
2022/12/01 10:42:35;;;;;;;39.08;15.23;;;15.00;99.90;;;;;;4987611;28;20077;-74
2022/12/01 10:45:19;;;;;;;9.55;6.13;;;15.00;99.90;;;;;;4981593;28;20117;-74
2022/12/01 10:48:13;;;;;;;8.23;5.47;;;15.10;99.90;;;;;;4969309;28;20109;-74
2022/12/01 10:50:48;;;;;;;16.42;6.85;;;15.20;99.90;;;;;;4969451;28;20773;-73
2022/12/01 10:53:22;;;;;;;10.30;6.45;;;15.30;99.90;;;;;;4978491;28;20047;-74
2022/12/01 10:55:59;;;;;;;9.82;5.45;;;15.30;99.90;;;;;;4972201;28;20034;-76
2022/12/01 10:58:27;;;;;;;8.40;5.55;;;15.40;99.90;;;;;;4989184;28;20539;-76
2022/12/01 11:00:57;;;;;;;13.23;6.60;;;15.40;99.90;;;;;;4989570;28;20070;-76
2022/12/01 11:03:30;;;;;;;8.55;5.35;;;15.40;99.90;;;;;;4988286;28;20038;-75
2022/12/01 11:06:00;;;;;;;11.30;6.25;;;15.40;99.90;;;;;;4957786;28;20058;-74
2022/12/01 11:08:51;;;;;;;8.35;4.45;;;15.40;99.90;;;;;;4969332;28;20047;-73
2022/12/01 11:11:34;;;;;;;7.45;5.50;;;15.40;99.90;;;;;;4969056;28;20073;-74
2022/12/01 11:14:18;;;;;;;8.23;6.38;;;15.40;99.90;;;;;;4968529;28;20692;-75
2022/12/01 11:16:48;;;;;;;9.80;6.75;;;15.40;99.90;;;;;;4965180;28;20141;-73
2022/12/01 11:19:32;;;;;;;10.25;6.28;;;15.30;99.90;;;;;;4985941;28;20401;-73
2022/12/01 11:22:11;;;;;;;13.60;5.57;;;15.30;99.90;;;;;;4988697;28;20050;-73
2022/12/01 11:24:41;;;;;;;8.20;5.85;;;15.30;99.90;;;;;;4983799;28;20051;-73
2022/12/01 11:27:16;;;;;;;7.75;4.50;;;15.30;99.90;;;;;;4971060;28;20054;-73
2022/12/01 11:29:47;;;;;;;8.63;5.07;;;15.20;99.90;;;;;;4985571;28;20485;-73
2022/12/01 11:32:25;;;;;;;8.90;5.78;;;15.20;99.90;;;;;;4964206;28;20051;-73
2022/12/01 11:34:58;;;;;;;9.77;6.13;;;15.30;99.90;;;;;;4968241;28;20500;-73
2022/12/01 11:37:32;;;;;;;9.23;5.28;;;15.20;99.90;;;;;;4987479;28;20145;-73
2022/12/01 11:40:19;;;;;;;15.55;7.25;;;15.30;99.90;;;;;;4974893;28;20051;-73
2022/12/01 11:42:52;;;;;;;18.83;6.57;;;15.20;99.90;;;;;;4984930;28;20062;-73
2022/12/01 11:45:20;;;;;;;7.78;4.78;;;15.20;99.90;;;;;;4980699;28;20104;-73
2022/12/01 11:48:16;;;;;;;8.35;5.85;;;15.30;99.90;;;;;;4987321;28;20050;-75
2022/12/01 11:51:03;;;;;;;11.05;6.78;;;15.30;99.90;;;;;;4941903;28;20046;-74
2022/12/01 11:53:42;;;;;;;9.90;6.88;;;15.30;99.90;;;;;;4989126;28;20042;-74
2022/12/01 11:56:27;;;;;;;10.80;6.03;;;15.30;99.90;;;;;;4973651;28;20053;-74
2022/12/01 11:59:00;;;;;;;9.35;5.25;;;15.20;99.90;;;;;;4969456;28;20050;-74
2022/12/01 12:01:28;;;;;;;7.45;5.18;;;15.20;99.90;;;;;;4968703;28;20043;-74
2022/12/01 12:03:55;;;;;;;8.20;4.97;;;15.20;99.90;;;;;;4982829;28;20141;-74
2022/12/01 12:06:53;;;;;;;8.45;5.88;;;15.00;99.90;;;;;;4978956;28;20085;-74
2022/12/01 12:09:30;;;;;;;10.30;5.00;;;14.90;99.90;;;;;;4982698;28;20057;-74
2022/12/01 12:12:04;;;;;;;12.05;6.25;;;14.80;99.90;;;;;;4963296;28;20050;-74
2022/12/01 12:15:16;;;;;;;8.88;5.22;;;14.80;99.90;;;;;;4971729;28;20074;-74
2022/12/01 12:18:04;;;;;;;12.82;5.38;;;14.80;99.90;;;;;;4972937;28;20054;-74
2022/12/01 12:21:07;;;;;;;8.80;5.32;;;14.90;99.90;;;;;;4963464;28;20071;-75
2022/12/01 12:23:59;;;;;;;7.20;4.32;;;14.80;99.90;;;;;;4976117;28;20574;-74
2022/12/01 12:27:05;;;;;;;15.00;8.23;;;14.70;99.90;;;;;;4972842;28;20043;-75
2022/12/01 12:29:35;;;;;;;15.50;7.65;;;14.70;99.90;;;;;;4981108;28;20058;-74
2022/12/01 12:32:39;;;;;;;14.50;6.53;;;14.60;99.90;;;;;;4975889;28;20046;-74
2022/12/01 12:35:31;;;;;;;11.73;7.15;;;14.60;99.90;;;;;;4913072;29;20410;-75
2022/12/01 12:38:26;;;;;;;9.60;4.93;;;14.60;99.90;;;;;;4965088;28;20058;-75
2022/12/01 12:41:07;;;;;;;10.60;5.72;;;14.60;99.90;;;;;;4972975;28;20078;-75
2022/12/01 12:43:38;;;;;;;8.80;4.43;;;14.60;99.90;;;;;;4973604;28;20042;-74
2022/12/01 12:46:24;;;;;;;7.68;4.80;;;14.60;99.90;;;;;;4973765;28;20047;-74
2022/12/01 12:49:16;;;;;;;9.43;4.75;;;14.50;99.90;;;;;;4964950;28;20050;-75
2022/12/01 12:52:03;;;;;;;11.88;5.18;;;14.50;99.90;;;;;;4966224;28;20334;-74
2022/12/01 12:54:41;;;;;;;8.32;4.88;;;14.50;99.90;;;;;;4959674;28;20148;-74
2022/12/01 12:57:52;;;;;;;11.35;5.60;;;14.40;99.90;;;;;;4959130;28;20084;-74
2022/12/01 13:00:28;;;;;;;10.57;5.45;;;14.50;99.90;;;;;;4975896;28;20050;-74
2022/12/01 13:03:04;;;;;;;10.55;5.10;;;14.50;99.90;;;;;;4973627;28;20050;-75
2022/12/01 13:05:39;;;;;;;9.50;5.18;;;14.40;99.90;;;;;;4949956;28;20461;-76
2022/12/01 13:08:21;;;;;;;8.35;5.65;;;14.40;99.90;;;;;;4954054;28;20090;-75
2022/12/01 13:11:05;;;;;;;6.90;5.07;;;14.40;99.90;;;;;;4951476;28;20421;-74
2022/12/01 13:13:43;;;;;;;8.85;5.22;;;14.40;99.90;;;;;;4968208;28;20125;-75
2022/12/01 13:16:18;;;;;;;11.85;5.65;;;14.40;99.90;;;;;;4956333;28;20516;-75
2022/12/01 13:19:17;;;;;;;8.00;5.80;;;14.40;99.90;;;;;;4950426;28;20057;-75
2022/12/01 13:21:47;;;;;;;10.13;5.22;;;14.30;99.90;;;;;;4950990;28;20059;-75
2022/12/01 13:24:22;;;;;;;11.48;5.25;;;14.30;99.90;;;;;;4934380;29;20063;-74
2022/12/01 13:27:08;;;;;;;16.48;6.70;;;14.30;99.90;;;;;;4967272;28;20047;-75